sensor_id;sensor_type;location;lat;lon;timestamp;P1;durP1;ratioP1;P2;durP2;ratioP2
31728;SDS011;18309;43.658;1.312;2024-02-28T00:01:52;9.25;;;2.70;;
31728;SDS011;18309;43.658;1.312;2024-02-28T00:04:18;16.00;;;3.30;;
31728;SDS011;18309;43.658;1.312;2024-02-28T00:06:44;12.70;;;2.38;;
31728;SDS011;18309;43.658;1.312;2024-02-28T00:09:11;15.82;;;3.67;;
31728;SDS011;18309;43.658;1.312;2024-02-28T00:11:42;11.07;;;2.80;;
31728;SDS011;18309;43.658;1.312;2024-02-28T00:14:11;14.82;;;3.47;;
31728;SDS011;18309;43.658;1.312;2024-02-28T00:16:41;12.88;;;2.80;;
31728;SDS011;18309;43.658;1.312;2024-02-28T00:19:07;14.10;;;3.25;;
31728;SDS011;18309;43.658;1.312;2024-02-28T00:21:33;25.20;;;3.17;;
31728;SDS011;18309;43.658;1.312;2024-02-28T00:23:59;10.93;;;2.47;;
31728;SDS011;18309;43.658;1.312;2024-02-28T00:26:25;19.20;;;3.08;;
31728;SDS011;18309;43.658;1.312;2024-02-28T00:28:50;19.15;;;2.55;;
31728;SDS011;18309;43.658;1.312;2024-02-28T00:31:16;12.30;;;2.50;;
31728;SDS011;18309;43.658;1.312;2024-02-28T00:33:42;11.38;;;2.47;;
31728;SDS011;18309;43.658;1.312;2024-02-28T00:36:07;11.13;;;2.70;;
31728;SDS011;18309;43.658;1.312;2024-02-28T00:38:33;12.23;;;2.72;;
31728;SDS011;18309;43.658;1.312;2024-02-28T00:40:59;17.88;;;2.70;;
31728;SDS011;18309;43.658;1.312;2024-02-28T00:43:25;27.00;;;3.45;;
31728;SDS011;18309;43.658;1.312;2024-02-28T00:45:50;10.88;;;2.75;;
31728;SDS011;18309;43.658;1.312;2024-02-28T00:48:16;12.35;;;2.47;;
31728;SDS011;18309;43.658;1.312;2024-02-28T00:50:41;12.60;;;2.88;;
31728;SDS011;18309;43.658;1.312;2024-02-28T00:53:07;11.52;;;2.30;;
31728;SDS011;18309;43.658;1.312;2024-02-28T00:55:33;10.02;;;2.30;;
31728;SDS011;18309;43.658;1.312;2024-02-28T00:57:59;13.15;;;2.88;;
31728;SDS011;18309;43.658;1.312;2024-02-28T01:00:24;15.02;;;2.55;;
31728;SDS011;18309;43.658;1.312;2024-02-28T01:02:50;14.50;;;2.40;;
31728;SDS011;18309;43.658;1.312;2024-02-28T01:05:16;9.07;;;2.00;;
31728;SDS011;18309;43.658;1.312;2024-02-28T01:07:41;19.10;;;2.50;;
31728;SDS011;18309;43.658;1.312;2024-02-28T01:10:07;12.75;;;2.83;;
31728;SDS011;18309;43.658;1.312;2024-02-28T01:12:33;17.67;;;2.67;;
31728;SDS011;18309;43.658;1.312;2024-02-28T01:14:59;13.85;;;2.45;;
31728;SDS011;18309;43.658;1.312;2024-02-28T01:17:25;10.57;;;2.40;;
31728;SDS011;18309;43.658;1.312;2024-02-28T01:19:50;13.38;;;2.65;;
31728;SDS011;18309;43.658;1.312;2024-02-28T01:22:16;13.43;;;2.42;;
31728;SDS011;18309;43.658;1.312;2024-02-28T01:24:42;12.93;;;2.05;;
31728;SDS011;18309;43.658;1.312;2024-02-28T01:27:07;9.93;;;1.83;;
31728;SDS011;18309;43.658;1.312;2024-02-28T01:29:33;17.08;;;2.38;;
31728;SDS011;18309;43.658;1.312;2024-02-28T01:31:59;13.07;;;2.15;;
31728;SDS011;18309;43.658;1.312;2024-02-28T01:34:24;5.45;;;2.08;;
31728;SDS011;18309;43.658;1.312;2024-02-28T01:36:50;11.95;;;2.13;;
31728;SDS011;18309;43.658;1.312;2024-02-28T01:39:16;8.23;;;2.15;;
31728;SDS011;18309;43.658;1.312;2024-02-28T01:41:49;16.17;;;2.00;;
31728;SDS011;18309;43.658;1.312;2024-02-28T01:44:18;9.10;;;2.45;;
31728;SDS011;18309;43.658;1.312;2024-02-28T01:46:44;16.13;;;2.53;;
31728;SDS011;18309;43.658;1.312;2024-02-28T01:49:11;12.50;;;1.75;;
31728;SDS011;18309;43.658;1.312;2024-02-28T01:51:37;21.27;;;2.63;;
31728;SDS011;18309;43.658;1.312;2024-02-28T01:54:03;19.00;;;2.33;;
31728;SDS011;18309;43.658;1.312;2024-02-28T01:56:29;13.15;;;3.00;;
31728;SDS011;18309;43.658;1.312;2024-02-28T01:58:55;8.85;;;1.67;;
31728;SDS011;18309;43.658;1.312;2024-02-28T02:01:23;10.50;;;1.95;;
31728;SDS011;18309;43.658;1.312;2024-02-28T02:03:48;12.15;;;1.85;;
31728;SDS011;18309;43.658;1.312;2024-02-28T02:06:14;14.63;;;2.13;;
31728;SDS011;18309;43.658;1.312;2024-02-28T02:08:40;12.13;;;2.28;;
31728;SDS011;18309;43.658;1.312;2024-02-28T02:11:06;20.55;;;2.63;;
31728;SDS011;18309;43.658;1.312;2024-02-28T02:13:33;9.07;;;1.85;;
31728;SDS011;18309;43.658;1.312;2024-02-28T02:16:00;11.63;;;2.20;;
31728;SDS011;18309;43.658;1.312;2024-02-28T02:18:26;14.15;;;2.28;;
31728;SDS011;18309;43.658;1.312;2024-02-28T02:20:54;14.27;;;2.53;;
31728;SDS011;18309;43.658;1.312;2024-02-28T02:23:23;8.07;;;2.15;;
31728;SDS011;18309;43.658;1.312;2024-02-28T02:25:49;11.82;;;2.05;;
31728;SDS011;18309;43.658;1.312;2024-02-28T02:28:15;10.88;;;2.00;;
31728;SDS011;18309;43.658;1.312;2024-02-28T02:30:41;9.35;;;1.88;;
31728;SDS011;18309;43.658;1.312;2024-02-28T02:33:07;15.43;;;2.03;;
31728;SDS011;18309;43.658;1.312;2024-02-28T02:35:33;9.98;;;2.30;;
31728;SDS011;18309;43.658;1.312;2024-02-28T02:37:59;12.60;;;2.30;;
31728;SDS011;18309;43.658;1.312;2024-02-28T02:40:25;14.43;;;2.03;;
31728;SDS011;18309;43.658;1.312;2024-02-28T02:42:51;12.25;;;2.38;;
31728;SDS011;18309;43.658;1.312;2024-02-28T02:45:16;10.00;;;2.08;;
31728;SDS011;18309;43.658;1.312;2024-02-28T02:47:42;11.02;;;2.65;;
31728;SDS011;18309;43.658;1.312;2024-02-28T02:50:11;16.48;;;2.25;;
31728;SDS011;18309;43.658;1.312;2024-02-28T02:52:37;14.23;;;2.17;;
31728;SDS011;18309;43.658;1.312;2024-02-28T02:55:02;14.27;;;2.15;;
31728;SDS011;18309;43.658;1.312;2024-02-28T02:57:28;10.20;;;1.88;;
31728;SDS011;18309;43.658;1.312;2024-02-28T02:59:57;11.40;;;2.38;;
31728;SDS011;18309;43.658;1.312;2024-02-28T03:02:22;8.90;;;2.10;;
31728;SDS011;18309;43.658;1.312;2024-02-28T03:04:48;9.77;;;1.92;;
31728;SDS011;18309;43.658;1.312;2024-02-28T03:07:14;12.60;;;2.22;;
31728;SDS011;18309;43.658;1.312;2024-02-28T03:09:39;11.35;;;1.90;;
31728;SDS011;18309;43.658;1.312;2024-02-28T03:12:06;13.40;;;2.08;;
31728;SDS011;18309;43.658;1.312;2024-02-28T03:14:32;17.33;;;2.22;;
31728;SDS011;18309;43.658;1.312;2024-02-28T03:16:57;8.07;;;1.90;;
31728;SDS011;18309;43.658;1.312;2024-02-28T03:19:23;12.00;;;1.90;;
31728;SDS011;18309;43.658;1.312;2024-02-28T03:21:49;12.00;;;1.70;;
31728;SDS011;18309;43.658;1.312;2024-02-28T03:24:14;13.98;;;2.38;;
31728;SDS011;18309;43.658;1.312;2024-02-28T03:26:40;17.90;;;2.78;;
31728;SDS011;18309;43.658;1.312;2024-02-28T03:29:07;17.77;;;2.90;;
31728;SDS011;18309;43.658;1.312;2024-02-28T03:31:33;8.63;;;1.80;;
31728;SDS011;18309;43.658;1.312;2024-02-28T03:33:58;10.77;;;1.83;;
31728;SDS011;18309;43.658;1.312;2024-02-28T03:36:24;18.13;;;3.20;;
31728;SDS011;18309;43.658;1.312;2024-02-28T03:38:50;12.00;;;1.73;;
31728;SDS011;18309;43.658;1.312;2024-02-28T03:41:15;8.48;;;1.95;;
31728;SDS011;18309;43.658;1.312;2024-02-28T03:43:41;20.50;;;2.35;;
31728;SDS011;18309;43.658;1.312;2024-02-28T03:46:07;10.90;;;2.05;;
31728;SDS011;18309;43.658;1.312;2024-02-28T03:48:33;8.45;;;1.80;;
31728;SDS011;18309;43.658;1.312;2024-02-28T03:50:58;11.18;;;2.15;;
31728;SDS011;18309;43.658;1.312;2024-02-28T03:53:24;13.15;;;1.55;;
31728;SDS011;18309;43.658;1.312;2024-02-28T03:55:49;8.52;;;2.13;;
31728;SDS011;18309;43.658;1.312;2024-02-28T03:58:15;9.57;;;2.00;;
31728;SDS011;18309;43.658;1.312;2024-02-28T04:00:41;11.23;;;2.22;;
31728;SDS011;18309;43.658;1.312;2024-02-28T04:03:09;12.80;;;2.20;;
31728;SDS011;18309;43.658;1.312;2024-02-28T04:05:35;13.30;;;2.03;;
31728;SDS011;18309;43.658;1.312;2024-02-28T04:08:00;8.15;;;1.60;;
31728;SDS011;18309;43.658;1.312;2024-02-28T04:10:26;13.70;;;1.80;;
31728;SDS011;18309;43.658;1.312;2024-02-28T04:12:52;14.15;;;2.03;;
31728;SDS011;18309;43.658;1.312;2024-02-28T04:15:18;13.65;;;2.83;;
31728;SDS011;18309;43.658;1.312;2024-02-28T04:17:43;11.18;;;2.10;;
31728;SDS011;18309;43.658;1.312;2024-02-28T04:20:09;14.90;;;2.20;;
31728;SDS011;18309;43.658;1.312;2024-02-28T04:22:38;17.20;;;2.72;;
31728;SDS011;18309;43.658;1.312;2024-02-28T04:25:05;14.25;;;2.13;;
31728;SDS011;18309;43.658;1.312;2024-02-28T04:27:32;11.77;;;1.85;;
31728;SDS011;18309;43.658;1.312;2024-02-28T04:29:58;12.55;;;1.70;;
31728;SDS011;18309;43.658;1.312;2024-02-28T04:32:24;15.38;;;1.77;;
31728;SDS011;18309;43.658;1.312;2024-02-28T04:34:50;8.07;;;2.05;;
31728;SDS011;18309;43.658;1.312;2024-02-28T04:37:15;15.55;;;1.95;;
31728;SDS011;18309;43.658;1.312;2024-02-28T04:39:41;9.40;;;2.05;;
31728;SDS011;18309;43.658;1.312;2024-02-28T04:42:07;13.18;;;2.30;;
31728;SDS011;18309;43.658;1.312;2024-02-28T04:44:32;7.40;;;1.73;;
31728;SDS011;18309;43.658;1.312;2024-02-28T04:46:58;15.52;;;2.13;;
31728;SDS011;18309;43.658;1.312;2024-02-28T04:49:24;11.93;;;2.22;;
31728;SDS011;18309;43.658;1.312;2024-02-28T04:51:50;18.95;;;2.25;;
31728;SDS011;18309;43.658;1.312;2024-02-28T04:54:16;13.45;;;2.28;;
31728;SDS011;18309;43.658;1.312;2024-02-28T04:56:42;15.30;;;1.88;;
31728;SDS011;18309;43.658;1.312;2024-02-28T04:59:08;9.93;;;1.70;;
31728;SDS011;18309;43.658;1.312;2024-02-28T05:01:36;15.32;;;2.00;;
31728;SDS011;18309;43.658;1.312;2024-02-28T05:04:05;11.45;;;2.08;;
31728;SDS011;18309;43.658;1.312;2024-02-28T05:06:32;7.75;;;1.92;;
31728;SDS011;18309;43.658;1.312;2024-02-28T05:08:57;9.07;;;1.65;;
31728;SDS011;18309;43.658;1.312;2024-02-28T05:11:23;9.73;;;1.63;;
31728;SDS011;18309;43.658;1.312;2024-02-28T05:13:49;11.27;;;2.22;;
31728;SDS011;18309;43.658;1.312;2024-02-28T05:16:15;9.73;;;2.10;;
31728;SDS011;18309;43.658;1.312;2024-02-28T05:18:41;10.30;;;1.85;;
31728;SDS011;18309;43.658;1.312;2024-02-28T05:21:08;11.15;;;1.88;;
31728;SDS011;18309;43.658;1.312;2024-02-28T05:23:34;11.82;;;1.77;;
31728;SDS011;18309;43.658;1.312;2024-02-28T05:26:01;8.60;;;1.90;;
31728;SDS011;18309;43.658;1.312;2024-02-28T05:28:31;8.93;;;1.70;;
31728;SDS011;18309;43.658;1.312;2024-02-28T05:31:10;6.80;;;2.15;;
31728;SDS011;18309;43.658;1.312;2024-02-28T05:33:48;10.82;;;2.13;;
31728;SDS011;18309;43.658;1.312;2024-02-28T05:36:17;11.03;;;1.90;;
31728;SDS011;18309;43.658;1.312;2024-02-28T05:38:43;17.15;;;1.80;;
31728;SDS011;18309;43.658;1.312;2024-02-28T05:41:09;19.02;;;3.35;;
31728;SDS011;18309;43.658;1.312;2024-02-28T05:43:38;13.20;;;2.70;;
31728;SDS011;18309;43.658;1.312;2024-02-28T05:46:05;14.65;;;2.08;;
31728;SDS011;18309;43.658;1.312;2024-02-28T05:48:30;10.48;;;2.30;;
31728;SDS011;18309;43.658;1.312;2024-02-28T05:50:56;22.13;;;2.70;;
31728;SDS011;18309;43.658;1.312;2024-02-28T05:53:22;15.25;;;1.98;;
31728;SDS011;18309;43.658;1.312;2024-02-28T05:55:51;14.00;;;1.77;;
31728;SDS011;18309;43.658;1.312;2024-02-28T05:58:18;7.63;;;2.55;;
31728;SDS011;18309;43.658;1.312;2024-02-28T06:00:44;16.80;;;2.13;;
31728;SDS011;18309;43.658;1.312;2024-02-28T06:03:10;12.07;;;2.05;;
31728;SDS011;18309;43.658;1.312;2024-02-28T06:05:35;8.43;;;1.77;;
31728;SDS011;18309;43.658;1.312;2024-02-28T06:08:01;7.13;;;1.88;;
31728;SDS011;18309;43.658;1.312;2024-02-28T06:10:27;11.07;;;1.73;;
31728;SDS011;18309;43.658;1.312;2024-02-28T06:12:53;10.90;;;2.03;;
31728;SDS011;18309;43.658;1.312;2024-02-28T06:15:19;14.43;;;2.05;;
31728;SDS011;18309;43.658;1.312;2024-02-28T06:17:45;10.07;;;1.80;;
31728;SDS011;18309;43.658;1.312;2024-02-28T06:20:10;12.80;;;2.30;;
31728;SDS011;18309;43.658;1.312;2024-02-28T06:22:36;12.48;;;1.73;;
31728;SDS011;18309;43.658;1.312;2024-02-28T06:25:02;7.45;;;1.48;;
31728;SDS011;18309;43.658;1.312;2024-02-28T06:27:32;14.23;;;2.65;;
31728;SDS011;18309;43.658;1.312;2024-02-28T06:29:58;10.35;;;2.15;;
31728;SDS011;18309;43.658;1.312;2024-02-28T06:32:24;10.75;;;2.25;;
31728;SDS011;18309;43.658;1.312;2024-02-28T06:34:50;11.35;;;1.77;;
31728;SDS011;18309;43.658;1.312;2024-02-28T06:37:16;15.73;;;2.78;;
31728;SDS011;18309;43.658;1.312;2024-02-28T06:39:41;12.48;;;2.28;;
31728;SDS011;18309;43.658;1.312;2024-02-28T06:42:07;9.15;;;2.17;;
31728;SDS011;18309;43.658;1.312;2024-02-28T06:44:33;10.23;;;2.17;;
31728;SDS011;18309;43.658;1.312;2024-02-28T06:46:58;12.00;;;2.00;;
31728;SDS011;18309;43.658;1.312;2024-02-28T06:49:24;10.00;;;1.92;;
31728;SDS011;18309;43.658;1.312;2024-02-28T06:51:50;13.20;;;1.88;;
31728;SDS011;18309;43.658;1.312;2024-02-28T06:54:15;10.95;;;2.10;;
31728;SDS011;18309;43.658;1.312;2024-02-28T06:56:41;14.02;;;3.30;;
31728;SDS011;18309;43.658;1.312;2024-02-28T06:59:07;11.85;;;1.95;;
31728;SDS011;18309;43.658;1.312;2024-02-28T07:01:32;13.75;;;3.88;;
31728;SDS011;18309;43.658;1.312;2024-02-28T07:03:58;12.90;;;2.17;;
31728;SDS011;18309;43.658;1.312;2024-02-28T07:06:24;16.52;;;3.47;;
31728;SDS011;18309;43.658;1.312;2024-02-28T07:08:49;12.32;;;1.92;;
31728;SDS011;18309;43.658;1.312;2024-02-28T07:11:15;14.57;;;3.20;;
31728;SDS011;18309;43.658;1.312;2024-02-28T07:13:41;21.70;;;3.13;;
31728;SDS011;18309;43.658;1.312;2024-02-28T07:16:07;12.57;;;2.00;;
31728;SDS011;18309;43.658;1.312;2024-02-28T07:18:33;15.00;;;1.85;;
31728;SDS011;18309;43.658;1.312;2024-02-28T07:20:59;18.85;;;2.17;;
31728;SDS011;18309;43.658;1.312;2024-02-28T07:23:25;12.93;;;2.38;;
31728;SDS011;18309;43.658;1.312;2024-02-28T07:25:51;18.13;;;2.22;;
31728;SDS011;18309;43.658;1.312;2024-02-28T07:28:17;19.85;;;2.80;;
31728;SDS011;18309;43.658;1.312;2024-02-28T07:30:42;10.88;;;2.25;;
31728;SDS011;18309;43.658;1.312;2024-02-28T07:33:09;14.02;;;2.38;;
31728;SDS011;18309;43.658;1.312;2024-02-28T07:35:45;5.22;;;1.60;;
31728;SDS011;18309;43.658;1.312;2024-02-28T07:38:11;10.98;;;2.50;;
31728;SDS011;18309;43.658;1.312;2024-02-28T07:40:37;14.05;;;1.60;;
31728;SDS011;18309;43.658;1.312;2024-02-28T07:43:03;9.25;;;1.50;;
31728;SDS011;18309;43.658;1.312;2024-02-28T07:45:29;9.95;;;2.00;;
31728;SDS011;18309;43.658;1.312;2024-02-28T07:47:54;13.90;;;3.25;;
31728;SDS011;18309;43.658;1.312;2024-02-28T07:50:20;9.70;;;2.00;;
31728;SDS011;18309;43.658;1.312;2024-02-28T07:52:46;16.20;;;2.55;;
31728;SDS011;18309;43.658;1.312;2024-02-28T07:55:11;17.65;;;2.50;;
31728;SDS011;18309;43.658;1.312;2024-02-28T07:57:37;13.80;;;2.30;;
31728;SDS011;18309;43.658;1.312;2024-02-28T08:00:03;8.98;;;2.15;;
31728;SDS011;18309;43.658;1.312;2024-02-28T08:02:29;18.73;;;2.15;;
31728;SDS011;18309;43.658;1.312;2024-02-28T08:04:55;10.73;;;1.95;;
31728;SDS011;18309;43.658;1.312;2024-02-28T08:07:21;10.25;;;2.30;;
31728;SDS011;18309;43.658;1.312;2024-02-28T08:09:47;12.70;;;2.33;;
31728;SDS011;18309;43.658;1.312;2024-02-28T08:12:13;18.85;;;2.35;;
31728;SDS011;18309;43.658;1.312;2024-02-28T08:14:38;13.93;;;2.08;;
31728;SDS011;18309;43.658;1.312;2024-02-28T08:17:04;15.13;;;2.75;;
31728;SDS011;18309;43.658;1.312;2024-02-28T08:19:30;9.38;;;1.85;;
31728;SDS011;18309;43.658;1.312;2024-02-28T08:21:55;15.18;;;2.15;;
31728;SDS011;18309;43.658;1.312;2024-02-28T08:24:21;17.38;;;2.53;;
31728;SDS011;18309;43.658;1.312;2024-02-28T08:26:47;13.07;;;1.65;;
31728;SDS011;18309;43.658;1.312;2024-02-28T08:29:13;14.52;;;2.25;;
31728;SDS011;18309;43.658;1.312;2024-02-28T08:31:43;11.55;;;2.50;;
31728;SDS011;18309;43.658;1.312;2024-02-28T08:34:09;5.90;;;1.85;;
31728;SDS011;18309;43.658;1.312;2024-02-28T08:36:35;8.32;;;2.10;;
31728;SDS011;18309;43.658;1.312;2024-02-28T08:39:02;9.27;;;2.03;;
31728;SDS011;18309;43.658;1.312;2024-02-28T08:41:30;9.13;;;1.88;;
31728;SDS011;18309;43.658;1.312;2024-02-28T08:43:59;12.25;;;2.35;;
31728;SDS011;18309;43.658;1.312;2024-02-28T08:46:24;19.98;;;3.70;;
31728;SDS011;18309;43.658;1.312;2024-02-28T08:48:50;12.52;;;2.28;;
31728;SDS011;18309;43.658;1.312;2024-02-28T08:51:16;10.40;;;2.65;;
31728;SDS011;18309;43.658;1.312;2024-02-28T08:53:41;8.15;;;2.00;;
31728;SDS011;18309;43.658;1.312;2024-02-28T08:56:07;13.15;;;2.05;;
31728;SDS011;18309;43.658;1.312;2024-02-28T08:58:33;21.38;;;2.95;;
31728;SDS011;18309;43.658;1.312;2024-02-28T09:00:58;9.38;;;2.35;;
31728;SDS011;18309;43.658;1.312;2024-02-28T09:03:24;10.68;;;1.90;;
31728;SDS011;18309;43.658;1.312;2024-02-28T09:05:49;14.35;;;2.35;;
31728;SDS011;18309;43.658;1.312;2024-02-28T09:08:16;17.58;;;2.55;;
31728;SDS011;18309;43.658;1.312;2024-02-28T09:10:41;9.00;;;2.33;;
31728;SDS011;18309;43.658;1.312;2024-02-28T09:13:07;9.52;;;2.10;;
31728;SDS011;18309;43.658;1.312;2024-02-28T09:15:33;11.48;;;2.00;;
31728;SDS011;18309;43.658;1.312;2024-02-28T09:17:59;11.77;;;2.30;;
31728;SDS011;18309;43.658;1.312;2024-02-28T09:20:25;18.40;;;2.60;;
31728;SDS011;18309;43.658;1.312;2024-02-28T09:22:51;13.52;;;1.90;;
31728;SDS011;18309;43.658;1.312;2024-02-28T09:25:17;9.15;;;1.60;;
31728;SDS011;18309;43.658;1.312;2024-02-28T09:27:43;9.88;;;2.25;;
31728;SDS011;18309;43.658;1.312;2024-02-28T09:30:09;14.85;;;2.28;;
31728;SDS011;18309;43.658;1.312;2024-02-28T09:32:35;9.23;;;2.15;;
31728;SDS011;18309;43.658;1.312;2024-02-28T09:35:02;11.05;;;2.22;;
31728;SDS011;18309;43.658;1.312;2024-02-28T09:37:29;11.57;;;2.00;;
31728;SDS011;18309;43.658;1.312;2024-02-28T09:39:56;12.27;;;2.10;;
31728;SDS011;18309;43.658;1.312;2024-02-28T09:42:22;14.02;;;2.80;;
31728;SDS011;18309;43.658;1.312;2024-02-28T09:44:48;11.52;;;2.13;;
31728;SDS011;18309;43.658;1.312;2024-02-28T09:47:14;13.05;;;1.90;;
31728;SDS011;18309;43.658;1.312;2024-02-28T09:49:40;13.32;;;2.20;;
31728;SDS011;18309;43.658;1.312;2024-02-28T09:52:07;16.38;;;1.70;;
31728;SDS011;18309;43.658;1.312;2024-02-28T09:54:33;17.80;;;2.63;;
31728;SDS011;18309;43.658;1.312;2024-02-28T09:56:59;13.88;;;2.10;;
31728;SDS011;18309;43.658;1.312;2024-02-28T09:59:25;10.32;;;2.85;;
31728;SDS011;18309;43.658;1.312;2024-02-28T10:01:57;14.63;;;3.25;;
31728;SDS011;18309;43.658;1.312;2024-02-28T10:04:26;12.70;;;2.22;;
31728;SDS011;18309;43.658;1.312;2024-02-28T10:06:55;9.73;;;2.88;;
31728;SDS011;18309;43.658;1.312;2024-02-28T10:09:21;15.13;;;2.60;;
31728;SDS011;18309;43.658;1.312;2024-02-28T10:11:47;8.93;;;3.08;;
31728;SDS011;18309;43.658;1.312;2024-02-28T10:14:16;9.73;;;2.47;;
31728;SDS011;18309;43.658;1.312;2024-02-28T10:19:09;11.30;;;2.22;;
31728;SDS011;18309;43.658;1.312;2024-02-28T10:21:35;16.35;;;2.72;;
31728;SDS011;18309;43.658;1.312;2024-02-28T10:24:01;7.00;;;1.50;;
31728;SDS011;18309;43.658;1.312;2024-02-28T10:26:26;13.23;;;1.73;;
31728;SDS011;18309;43.658;1.312;2024-02-28T10:28:55;13.55;;;1.83;;
31728;SDS011;18309;43.658;1.312;2024-02-28T10:31:20;11.73;;;1.75;;
31728;SDS011;18309;43.658;1.312;2024-02-28T10:33:46;10.85;;;2.20;;
31728;SDS011;18309;43.658;1.312;2024-02-28T10:36:12;13.05;;;2.20;;
31728;SDS011;18309;43.658;1.312;2024-02-28T10:38:38;9.27;;;2.08;;
31728;SDS011;18309;43.658;1.312;2024-02-28T10:41:04;12.75;;;3.03;;
31728;SDS011;18309;43.658;1.312;2024-02-28T10:43:30;9.45;;;1.67;;
31728;SDS011;18309;43.658;1.312;2024-02-28T10:46:00;10.57;;;1.77;;
31728;SDS011;18309;43.658;1.312;2024-02-28T10:48:26;13.13;;;2.55;;
31728;SDS011;18309;43.658;1.312;2024-02-28T10:50:52;7.50;;;1.98;;
31728;SDS011;18309;43.658;1.312;2024-02-28T10:53:22;11.10;;;2.00;;
31728;SDS011;18309;43.658;1.312;2024-02-28T10:56:12;8.85;;;2.28;;
31728;SDS011;18309;43.658;1.312;2024-02-28T10:58:50;11.73;;;1.90;;
31728;SDS011;18309;43.658;1.312;2024-02-28T11:01:17;9.27;;;2.00;;
31728;SDS011;18309;43.658;1.312;2024-02-28T11:03:44;11.05;;;1.65;;
31728;SDS011;18309;43.658;1.312;2024-02-28T11:06:17;10.57;;;1.80;;
31728;SDS011;18309;43.658;1.312;2024-02-28T11:08:45;9.10;;;1.80;;
31728;SDS011;18309;43.658;1.312;2024-02-28T11:11:13;9.63;;;2.22;;
31728;SDS011;18309;43.658;1.312;2024-02-28T11:13:50;9.50;;;1.88;;
31728;SDS011;18309;43.658;1.312;2024-02-28T11:16:17;7.95;;;1.27;;
31728;SDS011;18309;43.658;1.312;2024-02-28T11:18:50;10.48;;;1.60;;
31728;SDS011;18309;43.658;1.312;2024-02-28T11:21:16;11.48;;;1.60;;
31728;SDS011;18309;43.658;1.312;2024-02-28T11:23:42;10.02;;;2.03;;
31728;SDS011;18309;43.658;1.312;2024-02-28T11:26:12;7.20;;;1.80;;
31728;SDS011;18309;43.658;1.312;2024-02-28T11:28:38;7.00;;;1.73;;
31728;SDS011;18309;43.658;1.312;2024-02-28T11:31:04;4.38;;;1.50;;
31728;SDS011;18309;43.658;1.312;2024-02-28T11:33:30;11.07;;;1.75;;
31728;SDS011;18309;43.658;1.312;2024-02-28T11:35:58;7.20;;;1.95;;
31728;SDS011;18309;43.658;1.312;2024-02-28T11:38:27;11.38;;;1.90;;
31728;SDS011;18309;43.658;1.312;2024-02-28T11:40:53;9.43;;;1.67;;
31728;SDS011;18309;43.658;1.312;2024-02-28T11:43:22;8.23;;;1.60;;
31728;SDS011;18309;43.658;1.312;2024-02-28T11:45:49;7.03;;;1.30;;
31728;SDS011;18309;43.658;1.312;2024-02-28T11:48:15;7.85;;;1.30;;
31728;SDS011;18309;43.658;1.312;2024-02-28T11:50:41;3.92;;;1.10;;
31728;SDS011;18309;43.658;1.312;2024-02-28T11:53:07;9.15;;;1.38;;
31728;SDS011;18309;43.658;1.312;2024-02-28T11:55:33;7.32;;;1.08;;
31728;SDS011;18309;43.658;1.312;2024-02-28T11:57:59;13.48;;;1.52;;
31728;SDS011;18309;43.658;1.312;2024-02-28T12:00:25;4.60;;;1.00;;
31728;SDS011;18309;43.658;1.312;2024-02-28T12:02:51;4.68;;;1.30;;
31728;SDS011;18309;43.658;1.312;2024-02-28T12:05:19;5.47;;;1.33;;
31728;SDS011;18309;43.658;1.312;2024-02-28T12:07:45;6.15;;;1.60;;
31728;SDS011;18309;43.658;1.312;2024-02-28T12:10:10;11.90;;;2.25;;
31728;SDS011;18309;43.658;1.312;2024-02-28T12:12:36;6.10;;;1.10;;
31728;SDS011;18309;43.658;1.312;2024-02-28T12:15:05;6.82;;;0.98;;
31728;SDS011;18309;43.658;1.312;2024-02-28T12:17:31;5.07;;;0.90;;
31728;SDS011;18309;43.658;1.312;2024-02-28T12:20:00;5.63;;;1.25;;
31728;SDS011;18309;43.658;1.312;2024-02-28T12:22:26;6.78;;;1.10;;
31728;SDS011;18309;43.658;1.312;2024-02-28T12:24:52;7.00;;;1.15;;
31728;SDS011;18309;43.658;1.312;2024-02-28T12:27:18;2.78;;;1.02;;
31728;SDS011;18309;43.658;1.312;2024-02-28T12:29:44;3.85;;;1.00;;
31728;SDS011;18309;43.658;1.312;2024-02-28T12:32:09;3.70;;;0.80;;
31728;SDS011;18309;43.658;1.312;2024-02-28T12:34:35;3.20;;;0.98;;
31728;SDS011;18309;43.658;1.312;2024-02-28T12:37:01;3.17;;;0.88;;
31728;SDS011;18309;43.658;1.312;2024-02-28T12:39:29;7.45;;;1.05;;
31728;SDS011;18309;43.658;1.312;2024-02-28T12:41:54;7.13;;;0.90;;
31728;SDS011;18309;43.658;1.312;2024-02-28T12:44:20;5.10;;;1.15;;
31728;SDS011;18309;43.658;1.312;2024-02-28T12:46:46;5.15;;;0.80;;
31728;SDS011;18309;43.658;1.312;2024-02-28T12:49:11;3.53;;;1.05;;
31728;SDS011;18309;43.658;1.312;2024-02-28T12:51:40;4.32;;;0.95;;
31728;SDS011;18309;43.658;1.312;2024-02-28T12:54:07;6.15;;;1.20;;
31728;SDS011;18309;43.658;1.312;2024-02-28T12:56:34;2.58;;;0.90;;
31728;SDS011;18309;43.658;1.312;2024-02-28T12:59:01;6.30;;;0.98;;
31728;SDS011;18309;43.658;1.312;2024-02-28T13:01:27;2.97;;;0.70;;
31728;SDS011;18309;43.658;1.312;2024-02-28T13:03:53;2.70;;;0.63;;
31728;SDS011;18309;43.658;1.312;2024-02-28T13:06:19;2.72;;;0.90;;
31728;SDS011;18309;43.658;1.312;2024-02-28T13:08:45;2.80;;;0.70;;
31728;SDS011;18309;43.658;1.312;2024-02-28T13:11:16;5.72;;;0.80;;
31728;SDS011;18309;43.658;1.312;2024-02-28T13:13:43;3.55;;;0.80;;
31728;SDS011;18309;43.658;1.312;2024-02-28T13:16:09;2.38;;;0.80;;
31728;SDS011;18309;43.658;1.312;2024-02-28T13:18:34;4.38;;;0.70;;
31728;SDS011;18309;43.658;1.312;2024-02-28T13:21:00;1.42;;;0.55;;
31728;SDS011;18309;43.658;1.312;2024-02-28T13:23:26;2.80;;;0.70;;
31728;SDS011;18309;43.658;1.312;2024-02-28T13:25:51;2.42;;;0.70;;
31728;SDS011;18309;43.658;1.312;2024-02-28T13:28:17;3.13;;;0.70;;
31728;SDS011;18309;43.658;1.312;2024-02-28T13:30:43;2.40;;;0.93;;
31728;SDS011;18309;43.658;1.312;2024-02-28T13:33:08;2.50;;;0.77;;
31728;SDS011;18309;43.658;1.312;2024-02-28T13:35:35;3.88;;;0.65;;
31728;SDS011;18309;43.658;1.312;2024-02-28T13:38:03;4.07;;;0.90;;
31728;SDS011;18309;43.658;1.312;2024-02-28T13:40:29;5.60;;;0.98;;
31728;SDS011;18309;43.658;1.312;2024-02-28T13:42:55;9.20;;;0.90;;
31728;SDS011;18309;43.658;1.312;2024-02-28T13:45:21;4.97;;;1.02;;
31728;SDS011;18309;43.658;1.312;2024-02-28T13:47:46;3.70;;;0.70;;
31728;SDS011;18309;43.658;1.312;2024-02-28T13:50:13;2.15;;;1.17;;
31728;SDS011;18309;43.658;1.312;2024-02-28T13:52:39;1.63;;;0.85;;
31728;SDS011;18309;43.658;1.312;2024-02-28T13:55:05;2.72;;;0.80;;
31728;SDS011;18309;43.658;1.312;2024-02-28T13:57:34;2.50;;;0.70;;
31728;SDS011;18309;43.658;1.312;2024-02-28T13:59:59;4.18;;;1.77;;
31728;SDS011;18309;43.658;1.312;2024-02-28T14:02:25;2.63;;;0.93;;
31728;SDS011;18309;43.658;1.312;2024-02-28T14:04:54;2.00;;;0.80;;
31728;SDS011;18309;43.658;1.312;2024-02-28T14:07:20;2.67;;;0.82;;
31728;SDS011;18309;43.658;1.312;2024-02-28T14:09:46;4.20;;;1.30;;
31728;SDS011;18309;43.658;1.312;2024-02-28T14:12:12;2.88;;;0.93;;
31728;SDS011;18309;43.658;1.312;2024-02-28T14:14:37;3.00;;;0.80;;
31728;SDS011;18309;43.658;1.312;2024-02-28T14:17:06;5.68;;;1.13;;
31728;SDS011;18309;43.658;1.312;2024-02-28T14:19:32;7.55;;;0.98;;
31728;SDS011;18309;43.658;1.312;2024-02-28T14:22:00;4.32;;;0.90;;
31728;SDS011;18309;43.658;1.312;2024-02-28T14:24:26;8.88;;;1.10;;
31728;SDS011;18309;43.658;1.312;2024-02-28T14:26:51;2.25;;;0.90;;
31728;SDS011;18309;43.658;1.312;2024-02-28T14:29:17;6.47;;;0.95;;
31728;SDS011;18309;43.658;1.312;2024-02-28T14:31:43;1.60;;;0.70;;
31728;SDS011;18309;43.658;1.312;2024-02-28T14:34:08;5.60;;;0.90;;
31728;SDS011;18309;43.658;1.312;2024-02-28T14:36:34;1.90;;;0.77;;
31728;SDS011;18309;43.658;1.312;2024-02-28T14:39:00;3.60;;;0.70;;